Flight Track Log - Related Links

Times and Time Zones

All times are in EDT time to prevent confusion due to time zone crossing. See the N87CH flight status page for this flight to view local times or setup timezone preferences in your user account.

Time Position Orientation Groundspeed Altitude Reporting Facility
EDT Latitude Longitude Course Direction KTS MPH feet Rate Location/Type
Sun 01:42:00 PM 46.2372 -119.1667 237° Southwest 148 170 1,700  Level Seattle Center
Sun 01:43:01 PM 46.2136 -119.2125 233° Southwest 158 182 3,100 1,475 Climbing Seattle Center
Sun 01:44:02 PM 46.1953 -119.2692 245° Southwest 157 181 4,700 1,721 Climbing Seattle Center
Sun 01:45:03 PM 46.1769 -119.3397 249° West 156 180 6,600 1,610 Climbing Seattle Center
Sun 01:46:05 PM 46.1553 -119.3989 242° Southwest 167 192 8,000 1,512 Climbing Seattle Center
Sun 01:47:00 PM 46.0889 -119.5376 237° Southwest  Level FlightAware Approximate
Sun 01:47:06 PM 46.1347 -119.4567 243° Southwest 162 186 9,700  Level Seattle Center
Sun 01:48:07 PM 46.1136 -119.5067 239° Southwest 148 170 11,100 1,279 Climbing Seattle Center
Sun 01:49:08 PM 46.0928 -119.5586 240° Southwest 150 173 12,300 1,230 Climbing Seattle Center
Sun 01:50:09 PM 46.0722 -119.6097 240° Southwest 150 173 13,600 1,122 Climbing Seattle Center
Sun 01:51:11 PM 46.0525 -119.6606 241° Southwest 148 170 14,600 1,073 Climbing Seattle Center
Sun 01:52:12 PM 46.0294 -119.7125 237° Southwest 153 176 15,800 639 Climbing Seattle Center
Sun 01:53:13 PM 46.0058 -119.7717 240° Southwest 174 200 15,900 98 Climbing Seattle Center
Sun 01:54:14 PM 45.9678 -119.8567 237° Southwest 209 241 16,000 98 Climbing Seattle Center
Sun 01:55:16 PM 45.9386 -119.9314 241° Southwest 215 247 16,100  Climbing Seattle Center
Sun 01:56:17 PM 45.9083 -120.0047 239° Southwest 215 247 16,000 -98 Descending Seattle Center
Sun 01:57:18 PM 45.8783 -120.0794 240° Southwest 217 250 15,900 -49 Descending Seattle Center
Sun 01:58:19 PM 45.8478 -120.1539 240° Southwest 216 249 15,900  Level Seattle Center
Sun 01:59:21 PM 45.8189 -120.2294 241° Southwest 218 251 15,900  Level Seattle Center
Sun 02:00:22 PM 45.7894 -120.3036 240° Southwest 216 249 15,900  Level Seattle Center
Sun 02:01:23 PM 45.7608 -120.3786 241° Southwest 215 247 15,900  Level Seattle Center
Sun 02:02:25 PM 45.7264 -120.4694 242° Southwest 216 249 15,900  Level Seattle Center
Sun 02:03:26 PM 45.6975 -120.5428 241° Southwest 214 246 15,900  Level Seattle Center
Sun 02:04:27 PM 45.6706 -120.6164 242° Southwest 211 243 15,900  Level Seattle Center
Sun 02:05:29 PM 45.6350 -120.6839 233° Southwest 215 247 15,900  Level Seattle Center
Sun 02:06:30 PM 45.5911 -120.7378 221° Southwest 210 242 15,900 -738 Level Seattle Center
Sun 02:07:31 PM 45.5547 -120.8169 237° Southwest 225 259 14,400 -683 Descending Seattle Center
Sun 02:08:33 PM 45.5228 -120.9022 242° Southwest 242 278 14,500 49 Climbing Seattle Center
Sun 02:09:34 PM 45.4969 -120.9775 244° Southwest 222 255 14,500  Level Seattle Center
Sun 02:10:35 PM 45.4708 -121.0533 244° Southwest 215 247 14,500  Level Seattle Center
Sun 02:11:37 PM 45.4378 -121.1408 242° Southwest 212 244 14,500  Level Seattle Center
Sun 02:12:38 PM 45.4117 -121.2153 243° Southwest 211 243 14,500  Level Seattle Center
Sun 02:13:40 PM 45.3850 -121.2894 243° Southwest 212 244 14,500  Level Seattle Center
Sun 02:14:41 PM 45.3581 -121.3642 243° Southwest 213 245 14,500  Level Seattle Center
Sun 02:15:42 PM 45.3325 -121.4394 244° Southwest 214 246 14,500  Level Seattle Center
Sun 02:16:44 PM 45.3053 -121.5136 242° Southwest 214 246 14,500 98 Level Seattle Center
Sun 02:17:45 PM 45.2794 -121.5894 244° Southwest 214 246 14,700  Climbing Seattle Center
Sun 02:18:46 PM 45.2508 -121.6642 241° Southwest 216 249 14,500 -49 Descending Seattle Center
Sun 02:19:48 PM 45.2156 -121.7522 240° Southwest 216 249 14,600 49 Climbing Seattle Center
Sun 02:20:49 PM 45.1842 -121.8236 238° Southwest 215 247 14,600  Level Seattle Center
Sun 02:21:50 PM 45.1528 -121.8942 238° Southwest 214 246 14,600 -49 Level Seattle Center
Sun 02:22:52 PM 45.1236 -121.9650 240° Southwest 213 245 14,500 -146 Descending Seattle Center
Sun 02:23:53 PM 45.0922 -122.0364 238° Southwest 213 245 14,300 -443 Descending Seattle Center
Sun 02:24:54 PM 45.0586 -122.1122 238° Southwest 223 257 13,600 -537 Descending Seattle Center
Sun 02:25:56 PM 45.0228 -122.1900 237° Southwest 233 268 13,200 -488 Descending Seattle Center
Sun 02:26:57 PM 44.9914 -122.2683 240° Southwest 230 265 12,600 -984 Descending Seattle Center
Sun 02:27:58 PM 44.9489 -122.3656 238° Southwest 240 276 11,200 -1,317 Descending Seattle Center
Sun 02:29:00 PM 44.9156 -122.4461 240° Southwest 239 275 9,900 -1,220 Descending Seattle Center
Sun 02:30:01 PM 44.8811 -122.5264 239° Southwest 239 275 8,700 -1,082 Descending Seattle Center
Sun 02:31:02 PM 44.8525 -122.5950 240° Southwest 222 255 7,700 -1,073 Descending Seattle Center
Sun 02:32:04 PM 44.8147 -122.6700 235° Southwest 221 254 6,500 -1,122 Descending Seattle Center
Sun 02:33:05 PM 44.7786 -122.7400 234° Southwest 220 253 5,400 -976 Descending Seattle Center
Sun 02:34:07 PM 44.7442 -122.8111 236° Southwest 220 253 4,500 -871 Descending Seattle Center

Login

Don't have an account? Register now (free) for customized features, flight alerts, and more!